sensor_id;sensor_type;location;lat;lon;timestamp;P1;durP1;ratioP1;P2;durP2;ratioP2
72156;SDS011;60035;52.122;5.406;2023-05-28T00:02:34;21.88;;;5.15;;
72156;SDS011;60035;52.122;5.406;2023-05-28T00:05:01;21.50;;;5.20;;
72156;SDS011;60035;52.122;5.406;2023-05-28T00:07:28;18.05;;;5.57;;
72156;SDS011;60035;52.122;5.406;2023-05-28T00:10:00;16.02;;;4.82;;
72156;SDS011;60035;52.122;5.406;2023-05-28T00:12:26;21.20;;;4.72;;
72156;SDS011;60035;52.122;5.406;2023-05-28T00:14:53;18.70;;;5.28;;
72156;SDS011;60035;52.122;5.406;2023-05-28T00:17:20;20.25;;;5.07;;
72156;SDS011;60035;52.122;5.406;2023-05-28T00:19:47;17.15;;;4.95;;
72156;SDS011;60035;52.122;5.406;2023-05-28T00:22:14;20.15;;;5.50;;
72156;SDS011;60035;52.122;5.406;2023-05-28T00:24:41;19.23;;;5.25;;
72156;SDS011;60035;52.122;5.406;2023-05-28T00:27:08;19.08;;;5.38;;
72156;SDS011;60035;52.122;5.406;2023-05-28T00:29:34;16.27;;;4.90;;
72156;SDS011;60035;52.122;5.406;2023-05-28T00:32:01;14.75;;;5.10;;
72156;SDS011;60035;52.122;5.406;2023-05-28T00:34:28;19.85;;;4.93;;
72156;SDS011;60035;52.122;5.406;2023-05-28T00:36:54;22.27;;;5.38;;
72156;SDS011;60035;52.122;5.406;2023-05-28T00:39:21;15.77;;;4.88;;
72156;SDS011;60035;52.122;5.406;2023-05-28T00:41:47;20.52;;;5.45;;
72156;SDS011;60035;52.122;5.406;2023-05-28T00:44:14;17.95;;;5.65;;
72156;SDS011;60035;52.122;5.406;2023-05-28T00:46:42;19.67;;;5.10;;
72156;SDS011;60035;52.122;5.406;2023-05-28T00:49:12;16.88;;;5.20;;
72156;SDS011;60035;52.122;5.406;2023-05-28T00:51:39;18.92;;;5.85;;
72156;SDS011;60035;52.122;5.406;2023-05-28T00:54:07;18.00;;;4.85;;
72156;SDS011;60035;52.122;5.406;2023-05-28T00:56:34;21.15;;;5.07;;
72156;SDS011;60035;52.122;5.406;2023-05-28T00:59:01;18.67;;;5.22;;
72156;SDS011;60035;52.122;5.406;2023-05-28T01:01:28;20.55;;;5.90;;
72156;SDS011;60035;52.122;5.406;2023-05-28T01:03:56;15.30;;;4.85;;
72156;SDS011;60035;52.122;5.406;2023-05-28T01:06:23;20.67;;;5.10;;
72156;SDS011;60035;52.122;5.406;2023-05-28T01:08:50;21.38;;;5.45;;
72156;SDS011;60035;52.122;5.406;2023-05-28T01:11:17;14.68;;;4.40;;
72156;SDS011;60035;52.122;5.406;2023-05-28T01:13:46;18.30;;;4.90;;
72156;SDS011;60035;52.122;5.406;2023-05-28T01:16:13;18.95;;;4.85;;
72156;SDS011;60035;52.122;5.406;2023-05-28T01:18:43;16.30;;;4.60;;
72156;SDS011;60035;52.122;5.406;2023-05-28T01:21:10;19.13;;;4.85;;
72156;SDS011;60035;52.122;5.406;2023-05-28T01:23:42;16.95;;;4.80;;
72156;SDS011;60035;52.122;5.406;2023-05-28T01:26:14;16.63;;;4.68;;
72156;SDS011;60035;52.122;5.406;2023-05-28T01:28:45;16.10;;;5.15;;
72156;SDS011;60035;52.122;5.406;2023-05-28T01:31:12;19.83;;;5.35;;
72156;SDS011;60035;52.122;5.406;2023-05-28T01:33:40;19.45;;;5.18;;
72156;SDS011;60035;52.122;5.406;2023-05-28T01:36:08;18.98;;;5.28;;
72156;SDS011;60035;52.122;5.406;2023-05-28T01:38:49;17.30;;;5.13;;
72156;SDS011;60035;52.122;5.406;2023-05-28T01:41:19;17.92;;;4.45;;
72156;SDS011;60035;52.122;5.406;2023-05-28T01:43:46;16.60;;;4.85;;
72156;SDS011;60035;52.122;5.406;2023-05-28T01:46:13;14.93;;;4.68;;
72156;SDS011;60035;52.122;5.406;2023-05-28T01:48:41;16.92;;;5.82;;
72156;SDS011;60035;52.122;5.406;2023-05-28T01:51:08;17.83;;;5.10;;
72156;SDS011;60035;52.122;5.406;2023-05-28T01:53:35;17.08;;;5.30;;
72156;SDS011;60035;52.122;5.406;2023-05-28T01:56:01;17.83;;;5.13;;
72156;SDS011;60035;52.122;5.406;2023-05-28T01:58:28;20.27;;;5.88;;
72156;SDS011;60035;52.122;5.406;2023-05-28T02:01:01;19.42;;;5.38;;
72156;SDS011;60035;52.122;5.406;2023-05-28T02:03:36;19.58;;;5.82;;
72156;SDS011;60035;52.122;5.406;2023-05-28T02:06:03;17.58;;;5.97;;
72156;SDS011;60035;52.122;5.406;2023-05-28T02:08:30;20.52;;;5.32;;
72156;SDS011;60035;52.122;5.406;2023-05-28T02:10:57;19.90;;;6.90;;
72156;SDS011;60035;52.122;5.406;2023-05-28T02:13:23;23.38;;;5.80;;
72156;SDS011;60035;52.122;5.406;2023-05-28T02:15:50;16.00;;;5.47;;
72156;SDS011;60035;52.122;5.406;2023-05-28T02:18:17;16.50;;;4.88;;
72156;SDS011;60035;52.122;5.406;2023-05-28T02:20:44;20.30;;;5.50;;
72156;SDS011;60035;52.122;5.406;2023-05-28T02:23:11;19.98;;;5.57;;
72156;SDS011;60035;52.122;5.406;2023-05-28T02:25:38;21.05;;;6.35;;
72156;SDS011;60035;52.122;5.406;2023-05-28T02:28:04;17.58;;;5.70;;
72156;SDS011;60035;52.122;5.406;2023-05-28T02:30:31;18.33;;;6.00;;
72156;SDS011;60035;52.122;5.406;2023-05-28T02:32:58;21.70;;;6.38;;
72156;SDS011;60035;52.122;5.406;2023-05-28T02:35:24;18.80;;;5.43;;
72156;SDS011;60035;52.122;5.406;2023-05-28T02:37:51;16.23;;;5.40;;
72156;SDS011;60035;52.122;5.406;2023-05-28T02:40:17;21.33;;;5.32;;
72156;SDS011;60035;52.122;5.406;2023-05-28T02:42:46;17.67;;;5.15;;
72156;SDS011;60035;52.122;5.406;2023-05-28T02:45:13;18.50;;;5.22;;
72156;SDS011;60035;52.122;5.406;2023-05-28T02:47:40;20.55;;;5.38;;
72156;SDS011;60035;52.122;5.406;2023-05-28T02:50:07;21.63;;;5.10;;
72156;SDS011;60035;52.122;5.406;2023-05-28T02:52:34;20.30;;;5.45;;
72156;SDS011;60035;52.122;5.406;2023-05-28T02:55:00;20.95;;;5.40;;
72156;SDS011;60035;52.122;5.406;2023-05-28T02:57:27;15.68;;;5.00;;
72156;SDS011;60035;52.122;5.406;2023-05-28T02:59:53;16.63;;;5.38;;
72156;SDS011;60035;52.122;5.406;2023-05-28T03:02:20;17.10;;;5.30;;
72156;SDS011;60035;52.122;5.406;2023-05-28T03:04:47;18.67;;;4.80;;
72156;SDS011;60035;52.122;5.406;2023-05-28T03:07:15;18.98;;;5.85;;
72156;SDS011;60035;52.122;5.406;2023-05-28T03:09:42;16.92;;;5.28;;
72156;SDS011;60035;52.122;5.406;2023-05-28T03:12:09;18.55;;;5.93;;
72156;SDS011;60035;52.122;5.406;2023-05-28T03:14:35;18.25;;;5.47;;
72156;SDS011;60035;52.122;5.406;2023-05-28T03:17:02;19.70;;;4.97;;
72156;SDS011;60035;52.122;5.406;2023-05-28T03:19:29;22.75;;;5.60;;
72156;SDS011;60035;52.122;5.406;2023-05-28T03:21:55;17.58;;;5.50;;
72156;SDS011;60035;52.122;5.406;2023-05-28T03:24:22;19.70;;;5.28;;
72156;SDS011;60035;52.122;5.406;2023-05-28T03:26:49;21.70;;;6.10;;
72156;SDS011;60035;52.122;5.406;2023-05-28T03:29:15;20.92;;;5.75;;
72156;SDS011;60035;52.122;5.406;2023-05-28T03:31:43;19.45;;;4.85;;
72156;SDS011;60035;52.122;5.406;2023-05-28T03:34:11;17.73;;;5.30;;
72156;SDS011;60035;52.122;5.406;2023-05-28T03:36:38;17.75;;;5.35;;
72156;SDS011;60035;52.122;5.406;2023-05-28T03:39:08;18.30;;;5.72;;
72156;SDS011;60035;52.122;5.406;2023-05-28T03:41:35;19.30;;;5.13;;
72156;SDS011;60035;52.122;5.406;2023-05-28T03:44:03;20.05;;;6.47;;
72156;SDS011;60035;52.122;5.406;2023-05-28T03:46:31;18.13;;;5.30;;
72156;SDS011;60035;52.122;5.406;2023-05-28T03:48:58;16.60;;;6.75;;
72156;SDS011;60035;52.122;5.406;2023-05-28T03:51:25;24.38;;;5.90;;
72156;SDS011;60035;52.122;5.406;2023-05-28T03:53:54;21.75;;;6.15;;
72156;SDS011;60035;52.122;5.406;2023-05-28T03:56:21;19.75;;;7.13;;
72156;SDS011;60035;52.122;5.406;2023-05-28T03:58:47;21.60;;;6.15;;
72156;SDS011;60035;52.122;5.406;2023-05-28T04:01:14;15.73;;;5.35;;
72156;SDS011;60035;52.122;5.406;2023-05-28T04:03:40;21.58;;;5.60;;
72156;SDS011;60035;52.122;5.406;2023-05-28T04:06:07;21.10;;;5.72;;
72156;SDS011;60035;52.122;5.406;2023-05-28T04:08:34;17.83;;;5.78;;
72156;SDS011;60035;52.122;5.406;2023-05-28T04:11:01;15.35;;;5.85;;
72156;SDS011;60035;52.122;5.406;2023-05-28T04:13:29;18.70;;;6.30;;
72156;SDS011;60035;52.122;5.406;2023-05-28T04:15:56;16.05;;;5.57;;
72156;SDS011;60035;52.122;5.406;2023-05-28T04:18:25;15.27;;;5.55;;
72156;SDS011;60035;52.122;5.406;2023-05-28T04:23:19;16.67;;;6.13;;
72156;SDS011;60035;52.122;5.406;2023-05-28T04:25:46;16.42;;;6.82;;
72156;SDS011;60035;52.122;5.406;2023-05-28T04:28:13;18.25;;;6.50;;
72156;SDS011;60035;52.122;5.406;2023-05-28T04:30:43;14.90;;;5.53;;
72156;SDS011;60035;52.122;5.406;2023-05-28T04:33:10;17.88;;;5.97;;
72156;SDS011;60035;52.122;5.406;2023-05-28T04:35:36;21.83;;;6.07;;
72156;SDS011;60035;52.122;5.406;2023-05-28T04:38:03;17.20;;;6.78;;
72156;SDS011;60035;52.122;5.406;2023-05-28T04:40:30;21.98;;;6.60;;
72156;SDS011;60035;52.122;5.406;2023-05-28T04:42:56;19.35;;;7.20;;
72156;SDS011;60035;52.122;5.406;2023-05-28T04:45:23;20.40;;;7.05;;
72156;SDS011;60035;52.122;5.406;2023-05-28T04:47:50;20.33;;;7.22;;
72156;SDS011;60035;52.122;5.406;2023-05-28T04:50:18;20.15;;;6.88;;
72156;SDS011;60035;52.122;5.406;2023-05-28T04:52:44;16.88;;;5.57;;
72156;SDS011;60035;52.122;5.406;2023-05-28T04:55:11;14.02;;;5.13;;
72156;SDS011;60035;52.122;5.406;2023-05-28T04:57:38;16.17;;;5.57;;
72156;SDS011;60035;52.122;5.406;2023-05-28T05:00:05;19.83;;;6.65;;
72156;SDS011;60035;52.122;5.406;2023-05-28T05:02:38;21.80;;;6.25;;
72156;SDS011;60035;52.122;5.406;2023-05-28T05:05:07;14.02;;;5.35;;
72156;SDS011;60035;52.122;5.406;2023-05-28T05:07:37;15.93;;;6.43;;
72156;SDS011;60035;52.122;5.406;2023-05-28T05:10:05;13.55;;;4.88;;
72156;SDS011;60035;52.122;5.406;2023-05-28T05:12:36;23.80;;;5.97;;
72156;SDS011;60035;52.122;5.406;2023-05-28T05:15:03;17.83;;;7.03;;
72156;SDS011;60035;52.122;5.406;2023-05-28T05:17:31;15.85;;;5.40;;
72156;SDS011;60035;52.122;5.406;2023-05-28T05:20:00;16.15;;;6.60;;
72156;SDS011;60035;52.122;5.406;2023-05-28T05:22:28;13.32;;;5.00;;
72156;SDS011;60035;52.122;5.406;2023-05-28T05:24:55;17.95;;;5.95;;
72156;SDS011;60035;52.122;5.406;2023-05-28T05:27:22;19.23;;;5.68;;
72156;SDS011;60035;52.122;5.406;2023-05-28T05:29:48;17.95;;;6.10;;
72156;SDS011;60035;52.122;5.406;2023-05-28T05:32:15;19.30;;;6.43;;
72156;SDS011;60035;52.122;5.406;2023-05-28T05:34:41;18.17;;;6.80;;
72156;SDS011;60035;52.122;5.406;2023-05-28T05:37:08;15.88;;;5.07;;
72156;SDS011;60035;52.122;5.406;2023-05-28T05:39:35;17.67;;;5.28;;
72156;SDS011;60035;52.122;5.406;2023-05-28T05:42:01;16.27;;;6.03;;
72156;SDS011;60035;52.122;5.406;2023-05-28T05:44:27;19.65;;;6.25;;
72156;SDS011;60035;52.122;5.406;2023-05-28T05:46:54;13.57;;;4.82;;
72156;SDS011;60035;52.122;5.406;2023-05-28T05:49:21;16.13;;;5.15;;
72156;SDS011;60035;52.122;5.406;2023-05-28T05:51:48;14.57;;;4.97;;
72156;SDS011;60035;52.122;5.406;2023-05-28T05:54:14;15.20;;;5.57;;
72156;SDS011;60035;52.122;5.406;2023-05-28T05:56:41;19.40;;;5.55;;
72156;SDS011;60035;52.122;5.406;2023-05-28T05:59:07;19.00;;;7.10;;
72156;SDS011;60035;52.122;5.406;2023-05-28T06:01:34;13.82;;;5.35;;
72156;SDS011;60035;52.122;5.406;2023-05-28T06:04:01;19.60;;;6.40;;
72156;SDS011;60035;52.122;5.406;2023-05-28T06:06:27;17.80;;;5.60;;
72156;SDS011;60035;52.122;5.406;2023-05-28T06:08:54;15.95;;;5.63;;
72156;SDS011;60035;52.122;5.406;2023-05-28T06:11:21;18.33;;;5.40;;
72156;SDS011;60035;52.122;5.406;2023-05-28T06:13:49;20.33;;;6.32;;
72156;SDS011;60035;52.122;5.406;2023-05-28T06:16:23;18.98;;;5.00;;
72156;SDS011;60035;52.122;5.406;2023-05-28T06:18:49;18.60;;;5.00;;
72156;SDS011;60035;52.122;5.406;2023-05-28T06:21:16;13.70;;;4.70;;
72156;SDS011;60035;52.122;5.406;2023-05-28T06:23:42;19.42;;;5.60;;
72156;SDS011;60035;52.122;5.406;2023-05-28T06:26:09;17.75;;;5.05;;
72156;SDS011;60035;52.122;5.406;2023-05-28T06:28:36;15.32;;;5.50;;
72156;SDS011;60035;52.122;5.406;2023-05-28T06:31:05;14.95;;;5.55;;
72156;SDS011;60035;52.122;5.406;2023-05-28T06:33:33;21.20;;;6.00;;
72156;SDS011;60035;52.122;5.406;2023-05-28T06:35:59;15.23;;;5.20;;
72156;SDS011;60035;52.122;5.406;2023-05-28T06:38:26;17.25;;;5.13;;
72156;SDS011;60035;52.122;5.406;2023-05-28T06:40:52;15.73;;;6.05;;
72156;SDS011;60035;52.122;5.406;2023-05-28T06:43:19;17.60;;;6.32;;
72156;SDS011;60035;52.122;5.406;2023-05-28T06:45:48;15.77;;;5.97;;
72156;SDS011;60035;52.122;5.406;2023-05-28T06:48:15;18.30;;;6.22;;
72156;SDS011;60035;52.122;5.406;2023-05-28T06:50:42;15.73;;;5.70;;
72156;SDS011;60035;52.122;5.406;2023-05-28T06:53:08;17.73;;;5.78;;
72156;SDS011;60035;52.122;5.406;2023-05-28T06:55:35;19.00;;;6.55;;
72156;SDS011;60035;52.122;5.406;2023-05-28T06:58:02;17.52;;;5.43;;
72156;SDS011;60035;52.122;5.406;2023-05-28T07:00:28;16.20;;;5.60;;
72156;SDS011;60035;52.122;5.406;2023-05-28T07:02:55;18.50;;;5.95;;
72156;SDS011;60035;52.122;5.406;2023-05-28T07:05:22;16.98;;;6.45;;
72156;SDS011;60035;52.122;5.406;2023-05-28T07:07:49;16.83;;;4.90;;
72156;SDS011;60035;52.122;5.406;2023-05-28T07:10:15;17.65;;;5.88;;
72156;SDS011;60035;52.122;5.406;2023-05-28T07:12:42;17.42;;;5.63;;
72156;SDS011;60035;52.122;5.406;2023-05-28T07:15:09;19.38;;;5.25;;
72156;SDS011;60035;52.122;5.406;2023-05-28T07:17:36;16.52;;;6.03;;
72156;SDS011;60035;52.122;5.406;2023-05-28T07:20:03;17.77;;;6.40;;
72156;SDS011;60035;52.122;5.406;2023-05-28T07:22:32;15.93;;;6.22;;
72156;SDS011;60035;52.122;5.406;2023-05-28T07:24:58;16.75;;;6.05;;
72156;SDS011;60035;52.122;5.406;2023-05-28T07:27:25;18.35;;;6.20;;
72156;SDS011;60035;52.122;5.406;2023-05-28T07:29:51;14.73;;;5.15;;
72156;SDS011;60035;52.122;5.406;2023-05-28T07:32:18;17.65;;;5.75;;
72156;SDS011;60035;52.122;5.406;2023-05-28T07:34:45;18.42;;;6.15;;
72156;SDS011;60035;52.122;5.406;2023-05-28T07:37:12;18.75;;;5.32;;
72156;SDS011;60035;52.122;5.406;2023-05-28T07:39:38;18.13;;;5.47;;
72156;SDS011;60035;52.122;5.406;2023-05-28T07:42:05;14.15;;;4.63;;
72156;SDS011;60035;52.122;5.406;2023-05-28T07:44:33;15.73;;;4.93;;
72156;SDS011;60035;52.122;5.406;2023-05-28T07:46:59;14.18;;;4.93;;
72156;SDS011;60035;52.122;5.406;2023-05-28T07:49:26;19.48;;;5.72;;
72156;SDS011;60035;52.122;5.406;2023-05-28T07:51:53;17.58;;;5.63;;
72156;SDS011;60035;52.122;5.406;2023-05-28T07:54:19;14.07;;;5.60;;
72156;SDS011;60035;52.122;5.406;2023-05-28T07:56:46;15.75;;;5.63;;
72156;SDS011;60035;52.122;5.406;2023-05-28T07:59:12;13.52;;;4.72;;
72156;SDS011;60035;52.122;5.406;2023-05-28T08:01:39;16.20;;;4.40;;
72156;SDS011;60035;52.122;5.406;2023-05-28T08:04:06;17.55;;;5.57;;
72156;SDS011;60035;52.122;5.406;2023-05-28T08:06:33;15.93;;;5.47;;
72156;SDS011;60035;52.122;5.406;2023-05-28T08:09:00;18.83;;;5.65;;
72156;SDS011;60035;52.122;5.406;2023-05-28T08:11:26;17.63;;;4.90;;
72156;SDS011;60035;52.122;5.406;2023-05-28T08:13:53;14.25;;;4.63;;
72156;SDS011;60035;52.122;5.406;2023-05-28T08:16:19;12.75;;;4.28;;
72156;SDS011;60035;52.122;5.406;2023-05-28T08:18:46;15.05;;;4.45;;
72156;SDS011;60035;52.122;5.406;2023-05-28T08:21:12;14.13;;;4.93;;
72156;SDS011;60035;52.122;5.406;2023-05-28T08:23:40;15.48;;;5.43;;
72156;SDS011;60035;52.122;5.406;2023-05-28T08:26:07;14.05;;;5.10;;
72156;SDS011;60035;52.122;5.406;2023-05-28T08:28:33;12.35;;;4.70;;
72156;SDS011;60035;52.122;5.406;2023-05-28T08:31:03;13.45;;;4.80;;
72156;SDS011;60035;52.122;5.406;2023-05-28T08:33:29;11.32;;;4.35;;
72156;SDS011;60035;52.122;5.406;2023-05-28T08:35:56;18.58;;;4.38;;
72156;SDS011;60035;52.122;5.406;2023-05-28T08:38:23;18.92;;;5.10;;
72156;SDS011;60035;52.122;5.406;2023-05-28T08:40:51;16.70;;;4.75;;
72156;SDS011;60035;52.122;5.406;2023-05-28T08:43:20;15.60;;;4.80;;
72156;SDS011;60035;52.122;5.406;2023-05-28T08:45:50;15.40;;;4.97;;
72156;SDS011;60035;52.122;5.406;2023-05-28T08:48:19;12.40;;;5.05;;
72156;SDS011;60035;52.122;5.406;2023-05-28T08:50:48;13.82;;;5.13;;
72156;SDS011;60035;52.122;5.406;2023-05-28T08:53:19;13.50;;;5.05;;
72156;SDS011;60035;52.122;5.406;2023-05-28T08:55:47;15.55;;;4.68;;
72156;SDS011;60035;52.122;5.406;2023-05-28T08:58:14;15.25;;;4.45;;
72156;SDS011;60035;52.122;5.406;2023-05-28T09:00:42;13.65;;;4.50;;
72156;SDS011;60035;52.122;5.406;2023-05-28T09:03:09;14.20;;;4.93;;
72156;SDS011;60035;52.122;5.406;2023-05-28T09:05:36;15.48;;;5.35;;
72156;SDS011;60035;52.122;5.406;2023-05-28T09:08:05;12.18;;;4.22;;
72156;SDS011;60035;52.122;5.406;2023-05-28T09:10:37;14.05;;;4.22;;
72156;SDS011;60035;52.122;5.406;2023-05-28T09:13:04;12.73;;;3.90;;
72156;SDS011;60035;52.122;5.406;2023-05-28T09:15:31;16.38;;;4.90;;
72156;SDS011;60035;52.122;5.406;2023-05-28T09:18:06;14.82;;;4.90;;
72156;SDS011;60035;52.122;5.406;2023-05-28T09:20:32;14.85;;;5.07;;
72156;SDS011;60035;52.122;5.406;2023-05-28T09:22:59;13.57;;;5.15;;
72156;SDS011;60035;52.122;5.406;2023-05-28T09:25:27;13.75;;;4.18;;
72156;SDS011;60035;52.122;5.406;2023-05-28T09:27:56;12.70;;;4.55;;
72156;SDS011;60035;52.122;5.406;2023-05-28T09:30:22;13.68;;;4.95;;
72156;SDS011;60035;52.122;5.406;2023-05-28T09:32:56;16.42;;;4.95;;
72156;SDS011;60035;52.122;5.406;2023-05-28T09:35:27;10.48;;;4.60;;
72156;SDS011;60035;52.122;5.406;2023-05-28T09:38:03;13.90;;;4.63;;
72156;SDS011;60035;52.122;5.406;2023-05-28T09:40:31;13.27;;;4.50;;
72156;SDS011;60035;52.122;5.406;2023-05-28T09:42:58;15.38;;;4.88;;
72156;SDS011;60035;52.122;5.406;2023-05-28T09:45:25;13.40;;;4.25;;
72156;SDS011;60035;52.122;5.406;2023-05-28T09:47:53;13.77;;;4.47;;
72156;SDS011;60035;52.122;5.406;2023-05-28T09:50:20;13.05;;;4.85;;
72156;SDS011;60035;52.122;5.406;2023-05-28T09:52:47;12.55;;;4.75;;
72156;SDS011;60035;52.122;5.406;2023-05-28T09:55:14;12.88;;;4.22;;
72156;SDS011;60035;52.122;5.406;2023-05-28T10:01:05;12.00;;;4.80;;
72156;SDS011;60035;52.122;5.406;2023-05-28T10:03:43;13.05;;;4.43;;
72156;SDS011;60035;52.122;5.406;2023-05-28T10:06:23;13.02;;;4.78;;
72156;SDS011;60035;52.122;5.406;2023-05-28T10:08:51;13.73;;;4.20;;
72156;SDS011;60035;52.122;5.406;2023-05-28T10:11:24;11.73;;;4.50;;
72156;SDS011;60035;52.122;5.406;2023-05-28T10:13:56;12.60;;;4.38;;
72156;SDS011;60035;52.122;5.406;2023-05-28T10:16:24;14.48;;;4.57;;
72156;SDS011;60035;52.122;5.406;2023-05-28T10:18:52;14.70;;;4.38;;
72156;SDS011;60035;52.122;5.406;2023-05-28T10:21:19;14.13;;;4.82;;
72156;SDS011;60035;52.122;5.406;2023-05-28T10:23:47;13.80;;;4.63;;
72156;SDS011;60035;52.122;5.406;2023-05-28T10:26:16;14.45;;;4.90;;
72156;SDS011;60035;52.122;5.406;2023-05-28T10:28:44;15.20;;;5.05;;
72156;SDS011;60035;52.122;5.406;2023-05-28T10:31:11;10.77;;;4.30;;
72156;SDS011;60035;52.122;5.406;2023-05-28T10:33:38;16.50;;;4.75;;
72156;SDS011;60035;52.122;5.406;2023-05-28T10:36:10;12.98;;;3.70;;
72156;SDS011;60035;52.122;5.406;2023-05-28T10:38:44;15.35;;;3.80;;
72156;SDS011;60035;52.122;5.406;2023-05-28T10:41:23;11.70;;;3.80;;
72156;SDS011;60035;52.122;5.406;2023-05-28T10:43:50;12.88;;;4.72;;
72156;SDS011;60035;52.122;5.406;2023-05-28T10:57:07;13.38;;;4.13;;
72156;SDS011;60035;52.122;5.406;2023-05-28T10:59:38;12.80;;;3.88;;
72156;SDS011;60035;52.122;5.406;2023-05-28T11:02:09;15.75;;;5.20;;
72156;SDS011;60035;52.122;5.406;2023-05-28T11:04:36;10.18;;;4.20;;
72156;SDS011;60035;52.122;5.406;2023-05-28T11:07:03;12.20;;;4.40;;
72156;SDS011;60035;52.122;5.406;2023-05-28T11:09:31;13.35;;;4.75;;
72156;SDS011;60035;52.122;5.406;2023-05-28T11:11:58;17.75;;;6.20;;
72156;SDS011;60035;52.122;5.406;2023-05-28T11:14:32;12.00;;;4.38;;
72156;SDS011;60035;52.122;5.406;2023-05-28T11:17:09;9.93;;;3.47;;
72156;SDS011;60035;52.122;5.406;2023-05-28T11:19:38;13.63;;;4.75;;
72156;SDS011;60035;52.122;5.406;2023-05-28T11:22:15;14.77;;;4.50;;
72156;SDS011;60035;52.122;5.406;2023-05-28T11:27:17;14.02;;;4.28;;
72156;SDS011;60035;52.122;5.406;2023-05-28T11:29:43;11.98;;;4.30;;
72156;SDS011;60035;52.122;5.406;2023-05-28T11:32:10;13.10;;;3.72;;
72156;SDS011;60035;52.122;5.406;2023-05-28T11:34:37;12.57;;;4.00;;
72156;SDS011;60035;52.122;5.406;2023-05-28T11:37:04;15.02;;;5.32;;
72156;SDS011;60035;52.122;5.406;2023-05-28T11:39:34;12.68;;;4.70;;
72156;SDS011;60035;52.122;5.406;2023-05-28T11:42:01;13.38;;;4.15;;
72156;SDS011;60035;52.122;5.406;2023-05-28T11:44:27;11.90;;;3.90;;
72156;SDS011;60035;52.122;5.406;2023-05-28T11:46:55;14.20;;;4.22;;
72156;SDS011;60035;52.122;5.406;2023-05-28T11:49:22;20.48;;;4.35;;
72156;SDS011;60035;52.122;5.406;2023-05-28T11:51:50;15.68;;;4.38;;
72156;SDS011;60035;52.122;5.406;2023-05-28T11:54:18;13.20;;;4.57;;
72156;SDS011;60035;52.122;5.406;2023-05-28T11:56:49;13.18;;;5.03;;
72156;SDS011;60035;52.122;5.406;2023-05-28T11:59:17;13.95;;;4.55;;
72156;SDS011;60035;52.122;5.406;2023-05-28T12:01:44;13.80;;;5.05;;
72156;SDS011;60035;52.122;5.406;2023-05-28T12:04:11;14.63;;;3.88;;
72156;SDS011;60035;52.122;5.406;2023-05-28T12:06:50;12.07;;;4.30;;
72156;SDS011;60035;52.122;5.406;2023-05-28T12:09:18;12.35;;;5.00;;
72156;SDS011;60035;52.122;5.406;2023-05-28T12:12:00;11.10;;;4.38;;
72156;SDS011;60035;52.122;5.406;2023-05-28T12:14:40;13.30;;;4.05;;
72156;SDS011;60035;52.122;5.406;2023-05-28T12:17:07;10.63;;;4.00;;
72156;SDS011;60035;52.122;5.406;2023-05-28T12:19:38;12.90;;;3.90;;
72156;SDS011;60035;52.122;5.406;2023-05-28T12:22:12;10.93;;;3.70;;
72156;SDS011;60035;52.122;5.406;2023-05-28T12:24:48;12.88;;;5.05;;
72156;SDS011;60035;52.122;5.406;2023-05-28T12:27:20;10.32;;;4.15;;
72156;SDS011;60035;52.122;5.406;2023-05-28T12:29:46;12.02;;;4.88;;
72156;SDS011;60035;52.122;5.406;2023-05-28T12:32:13;12.68;;;4.28;;
72156;SDS011;60035;52.122;5.406;2023-05-28T12:34:50;9.20;;;4.00;;
72156;SDS011;60035;52.122;5.406;2023-05-28T12:37:21;11.85;;;4.07;;
72156;SDS011;60035;52.122;5.406;2023-05-28T12:39:48;12.00;;;4.15;;
72156;SDS011;60035;52.122;5.406;2023-05-28T12:42:23;12.50;;;3.80;;
72156;SDS011;60035;52.122;5.406;2023-05-28T12:44:49;13.45;;;4.45;;
72156;SDS011;60035;52.122;5.406;2023-05-28T12:47:16;12.05;;;4.28;;
72156;SDS011;60035;52.122;5.406;2023-05-28T12:49:43;10.38;;;3.40;;
72156;SDS011;60035;52.122;5.406;2023-05-28T12:52:09;10.95;;;4.22;;
72156;SDS011;60035;52.122;5.406;2023-05-28T12:54:41;9.82;;;3.97;;
72156;SDS011;60035;52.122;5.406;2023-05-28T12:57:08;11.68;;;4.65;;
72156;SDS011;60035;52.122;5.406;2023-05-28T12:59:38;12.73;;;4.60;;
72156;SDS011;60035;52.122;5.406;2023-05-28T13:02:07;12.68;;;4.45;;
72156;SDS011;60035;52.122;5.406;2023-05-28T13:04:42;12.48;;;3.95;;
72156;SDS011;60035;52.122;5.406;2023-05-28T13:07:10;9.38;;;3.75;;
72156;SDS011;60035;52.122;5.406;2023-05-28T13:09:41;12.07;;;3.83;;
72156;SDS011;60035;52.122;5.406;2023-05-28T13:12:10;10.48;;;4.35;;
72156;SDS011;60035;52.122;5.406;2023-05-28T13:14:36;13.20;;;4.20;;
72156;SDS011;60035;52.122;5.406;2023-05-28T13:17:06;11.23;;;3.78;;
72156;SDS011;60035;52.122;5.406;2023-05-28T13:19:38;10.43;;;4.00;;
72156;SDS011;60035;52.122;5.406;2023-05-28T13:22:04;10.13;;;4.28;;
72156;SDS011;60035;52.122;5.406;2023-05-28T13:24:34;10.95;;;3.80;;
72156;SDS011;60035;52.122;5.406;2023-05-28T13:27:12;10.05;;;3.95;;
72156;SDS011;60035;52.122;5.406;2023-05-28T13:29:39;12.50;;;4.07;;
72156;SDS011;60035;52.122;5.406;2023-05-28T13:32:06;12.52;;;4.50;;
72156;SDS011;60035;52.122;5.406;2023-05-28T13:34:34;12.95;;;4.60;;
72156;SDS011;60035;52.122;5.406;2023-05-28T13:37:01;10.82;;;4.38;;
72156;SDS011;60035;52.122;5.406;2023-05-28T13:39:28;12.05;;;4.25;;
72156;SDS011;60035;52.122;5.406;2023-05-28T13:41:55;10.85;;;4.18;;
72156;SDS011;60035;52.122;5.406;2023-05-28T13:44:23;13.55;;;4.80;;
72156;SDS011;60035;52.122;5.406;2023-05-28T13:46:51;16.58;;;4.35;;
72156;SDS011;60035;52.122;5.406;2023-05-28T13:49:17;11.80;;;4.60;;
72156;SDS011;60035;52.122;5.406;2023-05-28T13:51:44;10.65;;;4.28;;
72156;SDS011;60035;52.122;5.406;2023-05-28T13:54:12;11.57;;;4.47;;
72156;SDS011;60035;52.122;5.406;2023-05-28T13:56:41;13.82;;;4.00;;
72156;SDS011;60035;52.122;5.406;2023-05-28T13:59:08;9.25;;;3.67;;
72156;SDS011;60035;52.122;5.406;2023-05-28T14:01:35;10.27;;;4.00;;
72156;SDS011;60035;52.122;5.406;2023-05-28T14:04:02;11.65;;;4.20;;
72156;SDS011;60035;52.122;5.406;2023-05-28T14:06:30;18.15;;;4.35;;
72156;SDS011;60035;52.122;5.406;2023-05-28T14:08:58;12.57;;;4.07;;
72156;SDS011;60035;52.122;5.406;2023-05-28T14:11:25;10.57;;;3.90;;
72156;SDS011;60035;52.122;5.406;2023-05-28T14:14:02;13.73;;;3.88;;
72156;SDS011;60035;52.122;5.406;2023-05-28T14:16:28;10.10;;;3.97;;
72156;SDS011;60035;52.122;5.406;2023-05-28T14:18:55;10.27;;;3.97;;
72156;SDS011;60035;52.122;5.406;2023-05-28T14:21:22;10.57;;;4.18;;
72156;SDS011;60035;52.122;5.406;2023-05-28T14:23:48;10.43;;;3.95;;
72156;SDS011;60035;52.122;5.406;2023-05-28T14:26:15;11.90;;;4.07;;
72156;SDS011;60035;52.122;5.406;2023-05-28T14:28:41;11.90;;;4.70;;
72156;SDS011;60035;52.122;5.406;2023-05-28T14:31:08;11.23;;;4.38;;
72156;SDS011;60035;52.122;5.406;2023-05-28T14:33:34;10.43;;;3.60;;
72156;SDS011;60035;52.122;5.406;2023-05-28T14:36:01;9.23;;;4.32;;
72156;SDS011;60035;52.122;5.406;2023-05-28T14:38:40;9.23;;;3.58;;
72156;SDS011;60035;52.122;5.406;2023-05-28T14:41:07;9.35;;;4.15;;
72156;SDS011;60035;52.122;5.406;2023-05-28T14:43:33;9.95;;;3.53;;
72156;SDS011;60035;52.122;5.406;2023-05-28T14:46:03;9.23;;;3.50;;
72156;SDS011;60035;52.122;5.406;2023-05-28T14:48:30;10.32;;;3.83;;
72156;SDS011;60035;52.122;5.406;2023-05-28T14:50:57;10.95;;;4.03;;
72156;SDS011;60035;52.122;5.406;2023-05-28T14:53:23;8.75;;;4.05;;
72156;SDS011;60035;52.122;5.406;2023-05-28T14:55:50;11.10;;;3.70;;
72156;SDS011;60035;52.122;5.406;2023-05-28T14:58:18;8.43;;;3.58;;
72156;SDS011;60035;52.122;5.406;2023-05-28T15:00:45;8.45;;;3.67;;